JAL323 RJTT-RJFF
Flight info
| Callsign | JAL323 |
|---|---|
| Flight time | 1h 20m |
| Altitude | 40000 |
| Route | TIARA GUSRO Y20 KIRIN |
| Aircraft | A359/H-SDE2E3GHIJ3J4J5LM1ORWXY/LB1D1 |
Departure
| Time | 2026-05-07 07:16 |
|---|---|
| Airport | Tokyo Haneda International Airport (RJTT) |
Arrival
| Time | 2026-05-07 08:36 |
|---|---|
| Airport | Fukuoka Airport (RJFF) |
| Time | Latitude | Longitude | Altitude | Speed | Heading |
|---|---|---|---|---|---|
| 2026-05-07 06:37 | 35.55022 | 139.78184 | 29 ft | 0 kts | 60° |
| 2026-05-07 07:05 | 35.55021 | 139.78184 | 29 ft | 1 kts | 60° |
| 2026-05-07 07:06 | 35.55010 | 139.78159 | 28 ft | 4 kts | 60° |
| 2026-05-07 07:06 | 35.54996 | 139.78130 | 27 ft | 4 kts | 60° |
| 2026-05-07 07:06 | 35.54982 | 139.78102 | 27 ft | 4 kts | 60° |
| 2026-05-07 07:06 | 35.54970 | 139.78076 | 27 ft | 2 kts | 60° |
| 2026-05-07 07:07 | 35.54956 | 139.78052 | 27 ft | 4 kts | 29° |
| 2026-05-07 07:07 | 35.54932 | 139.78048 | 28 ft | 4 kts | 338° |
| 2026-05-07 07:07 | 35.54912 | 139.78061 | 27 ft | 1 kts | 330° |
| 2026-05-07 07:07 | 35.54911 | 139.78061 | 29 ft | 0 kts | 330° |
| 2026-05-07 07:10 | 35.54933 | 139.78046 | 29 ft | 9 kts | 330° |
| 2026-05-07 07:10 | 35.55016 | 139.77987 | 29 ft | 16 kts | 330° |
| 2026-05-07 07:10 | 35.55116 | 139.77916 | 29 ft | 18 kts | 330° |
| 2026-05-07 07:10 | 35.55228 | 139.77836 | 29 ft | 20 kts | 330° |
| 2026-05-07 07:11 | 35.55355 | 139.77746 | 28 ft | 22 kts | 330° |
| 2026-05-07 07:11 | 35.55495 | 139.77647 | 28 ft | 24 kts | 330° |
| 2026-05-07 07:11 | 35.55642 | 139.77543 | 28 ft | 26 kts | 330° |
| 2026-05-07 07:11 | 35.55795 | 139.77435 | 28 ft | 23 kts | 330° |
| 2026-05-07 07:12 | 35.55913 | 139.77352 | 30 ft | 16 kts | 334° |
| 2026-05-07 07:12 | 35.56015 | 139.77355 | 31 ft | 16 kts | 27° |
| 2026-05-07 07:12 | 35.56115 | 139.77438 | 30 ft | 19 kts | 35° |
| 2026-05-07 07:12 | 35.56224 | 139.77532 | 34 ft | 19 kts | 35° |
| 2026-05-07 07:13 | 35.56334 | 139.77627 | 35 ft | 20 kts | 35° |
| 2026-05-07 07:13 | 35.56454 | 139.77730 | 37 ft | 20 kts | 35° |
| 2026-05-07 07:13 | 35.56544 | 139.77807 | 40 ft | 12 kts | 35° |
| 2026-05-07 07:13 | 35.56598 | 139.77853 | 40 ft | 9 kts | 35° |
| 2026-05-07 07:14 | 35.56644 | 139.77849 | 43 ft | 6 kts | 324° |
| 2026-05-07 07:14 | 35.56681 | 139.77795 | 46 ft | 10 kts | 305° |
| 2026-05-07 07:14 | 35.56717 | 139.77731 | 47 ft | 8 kts | 300° |
| 2026-05-07 07:14 | 35.56706 | 139.77677 | 47 ft | 6 kts | 227° |
| 2026-05-07 07:15 | 35.56689 | 139.77661 | 49 ft | 0 kts | 216° |
| 2026-05-07 07:15 | 35.56656 | 139.77632 | 47 ft | 30 kts | 216° |
| 2026-05-07 07:15 | 35.56210 | 139.77249 | 41 ft | 125 kts | 215° |
| 2026-05-07 07:15 | 35.55327 | 139.76488 | 458 ft | 169 kts | 212° |
| 2026-05-07 07:16 | 35.54330 | 139.75711 | 1476 ft | 177 kts | 202° |
| 2026-05-07 07:16 | 35.53073 | 139.75635 | 2373 ft | 189 kts | 174° |
| 2026-05-07 07:16 | 35.51735 | 139.75888 | 2881 ft | 200 kts | 175° |
| 2026-05-07 07:16 | 35.50314 | 139.76044 | 3400 ft | 213 kts | 179° |
| 2026-05-07 07:17 | 35.48758 | 139.76112 | 3763 ft | 232 kts | 181° |
| 2026-05-07 07:17 | 35.47133 | 139.76131 | 4505 ft | 234 kts | 182° |
| 2026-05-07 07:17 | 35.45490 | 139.76129 | 5225 ft | 237 kts | 183° |
| 2026-05-07 07:17 | 35.43829 | 139.76122 | 5957 ft | 241 kts | 183° |
| 2026-05-07 07:18 | 35.42157 | 139.76132 | 6652 ft | 246 kts | 182° |
| 2026-05-07 07:18 | 35.40435 | 139.76145 | 7422 ft | 248 kts | 183° |
| 2026-05-07 07:18 | 35.38707 | 139.76155 | 8258 ft | 249 kts | 184° |
| 2026-05-07 07:18 | 35.36970 | 139.76164 | 9090 ft | 251 kts | 184° |
| 2026-05-07 07:19 | 35.35217 | 139.76267 | 9927 ft | 255 kts | 176° |
| 2026-05-07 07:19 | 35.33449 | 139.76514 | 10611 ft | 260 kts | 181° |
| 2026-05-07 07:19 | 35.31584 | 139.76585 | 10967 ft | 276 kts | 187° |
| 2026-05-07 07:19 | 35.29614 | 139.76337 | 11368 ft | 291 kts | 192° |
| 2026-05-07 07:20 | 35.27641 | 139.75996 | 12290 ft | 286 kts | 193° |
| 2026-05-07 07:20 | 35.25751 | 139.75378 | 13223 ft | 280 kts | 205° |
| 2026-05-07 07:20 | 35.24068 | 139.74193 | 13991 ft | 279 kts | 221° |
| 2026-05-07 07:20 | 35.22811 | 139.72409 | 14684 ft | 279 kts | 243° |
| 2026-05-07 07:21 | 35.22390 | 139.70095 | 15359 ft | 287 kts | 269° |
| 2026-05-07 07:21 | 35.22930 | 139.67712 | 15995 ft | 299 kts | 291° |
| 2026-05-07 07:21 | 35.23963 | 139.65420 | 16349 ft | 318 kts | 297° |
| 2026-05-07 07:21 | 35.25341 | 139.63197 | 16655 ft | 337 kts | 305° |
| 2026-05-07 07:22 | 35.26953 | 139.61006 | 16967 ft | 353 kts | 308° |
| 2026-05-07 07:22 | 35.28669 | 139.58831 | 17280 ft | 367 kts | 309° |
| 2026-05-07 07:22 | 35.30502 | 139.56581 | 17610 ft | 379 kts | 310° |
| 2026-05-07 07:22 | 35.32396 | 139.54294 | 18103 ft | 385 kts | 310° |
| 2026-05-07 07:23 | 35.34320 | 139.51988 | 18574 ft | 390 kts | 311° |
| 2026-05-07 07:23 | 35.36270 | 139.49657 | 19080 ft | 393 kts | 311° |
| 2026-05-07 07:23 | 35.38222 | 139.47324 | 19561 ft | 397 kts | 312° |
| 2026-05-07 07:23 | 35.40205 | 139.44952 | 20046 ft | 401 kts | 312° |
| 2026-05-07 07:24 | 35.42208 | 139.42558 | 20565 ft | 404 kts | 312° |
| 2026-05-07 07:24 | 35.44201 | 139.40177 | 21121 ft | 407 kts | 312° |
| 2026-05-07 07:24 | 35.46239 | 139.37739 | 21665 ft | 411 kts | 312° |
| 2026-05-07 07:24 | 35.48249 | 139.35239 | 22182 ft | 413 kts | 308° |
| 2026-05-07 07:25 | 35.51145 | 139.29244 | 23323 ft | 414 kts | 289° |
| 2026-05-07 07:25 | 35.52074 | 139.25889 | 23792 ft | 416 kts | 284° |
| 2026-05-07 07:25 | 35.52835 | 139.22459 | 24247 ft | 418 kts | 282° |
| 2026-05-07 07:26 | 35.53522 | 139.18981 | 24716 ft | 420 kts | 281° |
| 2026-05-07 07:26 | 35.54194 | 139.15472 | 25156 ft | 424 kts | 281° |
| 2026-05-07 07:26 | 35.54879 | 139.11945 | 25604 ft | 427 kts | 281° |
| 2026-05-07 07:26 | 35.55577 | 139.08434 | 26104 ft | 429 kts | 281° |
| 2026-05-07 07:27 | 35.56302 | 139.04870 | 26545 ft | 432 kts | 281° |
| 2026-05-07 07:27 | 35.57044 | 139.01273 | 26982 ft | 437 kts | 282° |
| 2026-05-07 07:27 | 35.57798 | 138.97636 | 27382 ft | 441 kts | 282° |
| 2026-05-07 07:27 | 35.58559 | 138.93974 | 27822 ft | 444 kts | 281° |
| 2026-05-07 07:28 | 35.59325 | 138.90283 | 28263 ft | 447 kts | 281° |
| 2026-05-07 07:28 | 35.60094 | 138.86574 | 28671 ft | 450 kts | 281° |
| 2026-05-07 07:28 | 35.60869 | 138.82825 | 29060 ft | 454 kts | 281° |
| 2026-05-07 07:28 | 35.61621 | 138.79099 | 29476 ft | 456 kts | 279° |
| 2026-05-07 07:29 | 35.62111 | 138.75245 | 29856 ft | 457 kts | 272° |
| 2026-05-07 07:29 | 35.62142 | 138.71353 | 30190 ft | 456 kts | 263° |
| 2026-05-07 07:29 | 35.61813 | 138.67461 | 30543 ft | 458 kts | 260° |
| 2026-05-07 07:29 | 35.61346 | 138.63594 | 30891 ft | 459 kts | 258° |
| 2026-05-07 07:30 | 35.60803 | 138.59714 | 31214 ft | 461 kts | 258° |
| 2026-05-07 07:30 | 35.60230 | 138.55828 | 31563 ft | 463 kts | 258° |
| 2026-05-07 07:30 | 35.59651 | 138.51932 | 31906 ft | 464 kts | 258° |
| 2026-05-07 07:30 | 35.59085 | 138.48071 | 32232 ft | 466 kts | 258° |
| 2026-05-07 07:31 | 35.58518 | 138.44147 | 32546 ft | 467 kts | 258° |
| 2026-05-07 07:31 | 35.57956 | 138.40214 | 32829 ft | 469 kts | 258° |
| 2026-05-07 07:31 | 35.57395 | 138.36254 | 33104 ft | 471 kts | 258° |
| 2026-05-07 07:31 | 35.56833 | 138.32280 | 33399 ft | 473 kts | 258° |
| 2026-05-07 07:32 | 35.56269 | 138.28305 | 33791 ft | 472 kts | 258° |
| 2026-05-07 07:32 | 35.55706 | 138.24345 | 34150 ft | 470 kts | 258° |
| 2026-05-07 07:32 | 35.55144 | 138.20397 | 34495 ft | 469 kts | 258° |
| 2026-05-07 07:32 | 35.54588 | 138.16501 | 34754 ft | 470 kts | 258° |
| 2026-05-07 07:33 | 35.54022 | 138.12554 | 35061 ft | 469 kts | 258° |
| 2026-05-07 07:33 | 35.53455 | 138.08617 | 35406 ft | 468 kts | 258° |
| 2026-05-07 07:33 | 35.52888 | 138.04687 | 35716 ft | 467 kts | 258° |
| 2026-05-07 07:33 | 35.52324 | 138.00785 | 36107 ft | 463 kts | 258° |
| 2026-05-07 07:34 | 35.51762 | 137.96897 | 36431 ft | 463 kts | 258° |
| 2026-05-07 07:34 | 35.51197 | 137.93008 | 36663 ft | 463 kts | 258° |
| 2026-05-07 07:34 | 35.50631 | 137.89120 | 36934 ft | 462 kts | 258° |
| 2026-05-07 07:34 | 35.50072 | 137.85288 | 37222 ft | 461 kts | 258° |
| 2026-05-07 07:35 | 35.49506 | 137.81421 | 37492 ft | 460 kts | 258° |
| 2026-05-07 07:35 | 35.48940 | 137.77560 | 37753 ft | 459 kts | 258° |
| 2026-05-07 07:35 | 35.48373 | 137.73704 | 37975 ft | 459 kts | 258° |
| 2026-05-07 07:35 | 35.47807 | 137.69852 | 38214 ft | 458 kts | 258° |
| 2026-05-07 07:36 | 35.47242 | 137.66020 | 38507 ft | 457 kts | 258° |
| 2026-05-07 07:36 | 35.46676 | 137.62190 | 38676 ft | 457 kts | 258° |
| 2026-05-07 07:36 | 35.46108 | 137.58360 | 38848 ft | 456 kts | 258° |
| 2026-05-07 07:36 | 35.45542 | 137.54548 | 39108 ft | 453 kts | 258° |
| 2026-05-07 07:37 | 35.44984 | 137.50806 | 39351 ft | 451 kts | 258° |
| 2026-05-07 07:37 | 35.44421 | 137.47033 | 39596 ft | 449 kts | 258° |
| 2026-05-07 07:37 | 35.43856 | 137.43262 | 39742 ft | 449 kts | 258° |
| 2026-05-07 07:37 | 35.43291 | 137.39496 | 39871 ft | 449 kts | 258° |
| 2026-05-07 07:38 | 35.42725 | 137.35726 | 39920 ft | 450 kts | 258° |
| 2026-05-07 07:38 | 35.41594 | 137.28223 | 39923 ft | 446 kts | 258° |
| 2026-05-07 07:39 | 35.40463 | 137.20753 | 39913 ft | 446 kts | 258° |
| 2026-05-07 07:39 | 35.39334 | 137.13327 | 39913 ft | 446 kts | 258° |
| 2026-05-07 07:40 | 35.38193 | 137.05859 | 39909 ft | 446 kts | 258° |
| 2026-05-07 07:40 | 35.37051 | 136.98411 | 39908 ft | 446 kts | 258° |
| 2026-05-07 07:41 | 35.35901 | 136.90943 | 39906 ft | 445 kts | 258° |
| 2026-05-07 07:41 | 35.34757 | 136.83549 | 39900 ft | 445 kts | 258° |
| 2026-05-07 07:42 | 35.33601 | 136.76101 | 39897 ft | 445 kts | 258° |
| 2026-05-07 07:42 | 35.32440 | 136.68656 | 39903 ft | 444 kts | 258° |
| 2026-05-07 07:43 | 35.31279 | 136.61243 | 39904 ft | 443 kts | 258° |
| 2026-05-07 07:43 | 35.30123 | 136.53894 | 39905 ft | 443 kts | 258° |
| 2026-05-07 07:44 | 35.28957 | 136.46509 | 39907 ft | 441 kts | 258° |
| 2026-05-07 07:44 | 35.27787 | 136.39138 | 39907 ft | 441 kts | 257° |
| 2026-05-07 07:45 | 35.26615 | 136.31776 | 39903 ft | 441 kts | 258° |
| 2026-05-07 07:45 | 35.25436 | 136.24407 | 39907 ft | 441 kts | 258° |
| 2026-05-07 07:46 | 35.24261 | 136.17086 | 39906 ft | 441 kts | 258° |
| 2026-05-07 07:46 | 35.23074 | 136.09720 | 39915 ft | 441 kts | 257° |
| 2026-05-07 07:47 | 35.21886 | 136.02383 | 39900 ft | 440 kts | 257° |
| 2026-05-07 07:47 | 35.20695 | 135.95052 | 39902 ft | 439 kts | 257° |
| 2026-05-07 07:48 | 35.19507 | 135.87772 | 39894 ft | 439 kts | 257° |
| 2026-05-07 07:48 | 35.18306 | 135.80457 | 39899 ft | 439 kts | 257° |
| 2026-05-07 07:49 | 35.17096 | 135.73139 | 39904 ft | 439 kts | 257° |
| 2026-05-07 07:49 | 35.15865 | 135.65838 | 39900 ft | 439 kts | 257° |
| 2026-05-07 07:50 | 35.14629 | 135.58548 | 39904 ft | 439 kts | 257° |
| 2026-05-07 07:50 | 35.13400 | 135.51298 | 39899 ft | 439 kts | 257° |
| 2026-05-07 07:51 | 35.12159 | 135.43997 | 39900 ft | 438 kts | 257° |
| 2026-05-07 07:51 | 35.10915 | 135.36713 | 39897 ft | 438 kts | 257° |
| 2026-05-07 07:52 | 35.09674 | 135.29470 | 39899 ft | 439 kts | 257° |
| 2026-05-07 07:52 | 35.08423 | 135.22171 | 39898 ft | 439 kts | 257° |
| 2026-05-07 07:53 | 35.07163 | 135.14882 | 39899 ft | 439 kts | 257° |
| 2026-05-07 07:53 | 35.05895 | 135.07583 | 39900 ft | 440 kts | 257° |
| 2026-05-07 07:54 | 35.04625 | 135.00288 | 39903 ft | 440 kts | 257° |
| 2026-05-07 07:54 | 35.03359 | 134.93036 | 39904 ft | 440 kts | 257° |
| 2026-05-07 07:55 | 35.02084 | 134.85734 | 39900 ft | 440 kts | 257° |
| 2026-05-07 07:55 | 35.00798 | 134.78437 | 39903 ft | 440 kts | 257° |
| 2026-05-07 07:56 | 34.99508 | 134.71149 | 39904 ft | 440 kts | 257° |
| 2026-05-07 07:56 | 34.98194 | 134.63911 | 39916 ft | 440 kts | 256° |
| 2026-05-07 07:57 | 34.96747 | 134.56662 | 39923 ft | 439 kts | 255° |
| 2026-05-07 07:57 | 34.95288 | 134.49445 | 39912 ft | 439 kts | 256° |
| 2026-05-07 07:58 | 34.93842 | 134.42217 | 39928 ft | 439 kts | 256° |
| 2026-05-07 07:58 | 34.92406 | 134.35001 | 39923 ft | 437 kts | 256° |
| 2026-05-07 07:59 | 34.90981 | 134.27851 | 39923 ft | 437 kts | 256° |
| 2026-05-07 07:59 | 34.89542 | 134.20662 | 39919 ft | 436 kts | 256° |
| 2026-05-07 08:00 | 34.88100 | 134.13485 | 39916 ft | 436 kts | 256° |
| 2026-05-07 08:00 | 34.86659 | 134.06331 | 39920 ft | 435 kts | 255° |
| 2026-05-07 08:01 | 34.85221 | 133.99218 | 39916 ft | 436 kts | 255° |
| 2026-05-07 08:01 | 34.83767 | 133.92056 | 39898 ft | 436 kts | 255° |
| 2026-05-07 08:02 | 34.82309 | 133.84899 | 39914 ft | 436 kts | 255° |
| 2026-05-07 08:02 | 34.80823 | 133.77742 | 39910 ft | 436 kts | 255° |
| 2026-05-07 08:03 | 34.79315 | 133.70644 | 39910 ft | 436 kts | 255° |
| 2026-05-07 08:03 | 34.77795 | 133.63499 | 39903 ft | 436 kts | 255° |
| 2026-05-07 08:04 | 34.76301 | 133.56463 | 39911 ft | 436 kts | 255° |
| 2026-05-07 08:04 | 34.74785 | 133.49333 | 39912 ft | 436 kts | 255° |
| 2026-05-07 08:05 | 34.73273 | 133.42255 | 39926 ft | 435 kts | 255° |
| 2026-05-07 08:05 | 34.71750 | 133.35146 | 39908 ft | 434 kts | 255° |
| 2026-05-07 08:06 | 34.70227 | 133.28055 | 39909 ft | 434 kts | 255° |
| 2026-05-07 08:06 | 34.68697 | 133.20954 | 39915 ft | 434 kts | 255° |
| 2026-05-07 08:07 | 34.67176 | 133.13918 | 39912 ft | 434 kts | 255° |
| 2026-05-07 08:07 | 34.65641 | 133.06839 | 39900 ft | 433 kts | 255° |
| 2026-05-07 08:08 | 34.64100 | 132.99749 | 39913 ft | 434 kts | 254° |
| 2026-05-07 08:08 | 34.62552 | 132.92653 | 39912 ft | 435 kts | 254° |
| 2026-05-07 08:09 | 34.61010 | 132.85605 | 39914 ft | 435 kts | 254° |
| 2026-05-07 08:09 | 34.59452 | 132.78504 | 39911 ft | 435 kts | 254° |
| 2026-05-07 08:10 | 34.57890 | 132.71408 | 39910 ft | 435 kts | 254° |
| 2026-05-07 08:10 | 34.56324 | 132.64313 | 39909 ft | 435 kts | 254° |
| 2026-05-07 08:11 | 34.54764 | 132.57267 | 39913 ft | 436 kts | 253° |
| 2026-05-07 08:11 | 34.53185 | 132.50159 | 39889 ft | 437 kts | 254° |
| 2026-05-07 08:12 | 34.51595 | 132.43027 | 39912 ft | 439 kts | 254° |
| 2026-05-07 08:12 | 34.49995 | 132.35891 | 39772 ft | 439 kts | 253° |
| 2026-05-07 08:12 | 34.49197 | 132.32325 | 39525 ft | 438 kts | 253° |
| 2026-05-07 08:13 | 34.48408 | 132.28803 | 39291 ft | 439 kts | 253° |
| 2026-05-07 08:13 | 34.47607 | 132.25233 | 39055 ft | 439 kts | 253° |
| 2026-05-07 08:13 | 34.46803 | 132.21659 | 38829 ft | 440 kts | 253° |
| 2026-05-07 08:13 | 34.45997 | 132.18081 | 38608 ft | 440 kts | 253° |
| 2026-05-07 08:14 | 34.45189 | 132.14516 | 38277 ft | 438 kts | 253° |
| 2026-05-07 08:14 | 34.44386 | 132.10968 | 37716 ft | 435 kts | 253° |
| 2026-05-07 08:14 | 34.43587 | 132.07436 | 37069 ft | 434 kts | 253° |
| 2026-05-07 08:14 | 34.42788 | 132.03909 | 36417 ft | 434 kts | 253° |
| 2026-05-07 08:15 | 34.42000 | 132.00427 | 35757 ft | 433 kts | 253° |
| 2026-05-07 08:15 | 34.41200 | 131.96908 | 35083 ft | 434 kts | 254° |
| 2026-05-07 08:15 | 34.40395 | 131.93376 | 34345 ft | 436 kts | 254° |
| 2026-05-07 08:15 | 34.39584 | 131.89829 | 33525 ft | 440 kts | 254° |
| 2026-05-07 08:16 | 34.38765 | 131.86250 | 32683 ft | 442 kts | 255° |
| 2026-05-07 08:16 | 34.37942 | 131.82654 | 31859 ft | 444 kts | 255° |
| 2026-05-07 08:16 | 34.37117 | 131.79052 | 31258 ft | 442 kts | 255° |
| 2026-05-07 08:16 | 34.36297 | 131.75476 | 30694 ft | 440 kts | 255° |
| 2026-05-07 08:17 | 34.35481 | 131.71923 | 30128 ft | 437 kts | 255° |
| 2026-05-07 08:17 | 34.34678 | 131.68434 | 29487 ft | 435 kts | 255° |
| 2026-05-07 08:17 | 34.33870 | 131.64929 | 28892 ft | 431 kts | 255° |
| 2026-05-07 08:17 | 34.33069 | 131.61452 | 28324 ft | 427 kts | 255° |
| 2026-05-07 08:18 | 34.32276 | 131.58008 | 27745 ft | 423 kts | 254° |
| 2026-05-07 08:18 | 34.31486 | 131.54598 | 27224 ft | 419 kts | 254° |
| 2026-05-07 08:18 | 34.30701 | 131.51215 | 26661 ft | 416 kts | 254° |
| 2026-05-07 08:18 | 34.29920 | 131.47857 | 26107 ft | 413 kts | 254° |
| 2026-05-07 08:19 | 34.29144 | 131.44522 | 25556 ft | 410 kts | 253° |
| 2026-05-07 08:19 | 34.28382 | 131.41256 | 25019 ft | 408 kts | 253° |
| 2026-05-07 08:19 | 34.27615 | 131.37971 | 24466 ft | 405 kts | 253° |
| 2026-05-07 08:19 | 34.26852 | 131.34707 | 23946 ft | 402 kts | 252° |
| 2026-05-07 08:20 | 34.26092 | 131.31455 | 23342 ft | 401 kts | 253° |
| 2026-05-07 08:20 | 34.25336 | 131.28224 | 22726 ft | 398 kts | 253° |
| 2026-05-07 08:20 | 34.24587 | 131.25030 | 22177 ft | 394 kts | 253° |
| 2026-05-07 08:20 | 34.23842 | 131.21860 | 21604 ft | 390 kts | 253° |
| 2026-05-07 08:21 | 34.23106 | 131.18722 | 21061 ft | 386 kts | 253° |
| 2026-05-07 08:21 | 34.22376 | 131.15617 | 20500 ft | 384 kts | 253° |
| 2026-05-07 08:21 | 34.21655 | 131.12562 | 19953 ft | 382 kts | 253° |
| 2026-05-07 08:21 | 34.20929 | 131.09489 | 19393 ft | 380 kts | 253° |
| 2026-05-07 08:22 | 34.20207 | 131.06431 | 18828 ft | 377 kts | 254° |
| 2026-05-07 08:22 | 34.19485 | 131.03396 | 18242 ft | 374 kts | 253° |
| 2026-05-07 08:22 | 34.18588 | 131.00464 | 17657 ft | 370 kts | 248° |
| 2026-05-07 08:22 | 34.17606 | 130.97598 | 17212 ft | 370 kts | 248° |
| 2026-05-07 08:23 | 34.16615 | 130.94760 | 16764 ft | 370 kts | 248° |
| 2026-05-07 08:23 | 34.15626 | 130.91954 | 16299 ft | 368 kts | 248° |
| 2026-05-07 08:23 | 34.14620 | 130.89117 | 15836 ft | 366 kts | 247° |
| 2026-05-07 08:23 | 34.13620 | 130.86302 | 15370 ft | 363 kts | 247° |
| 2026-05-07 08:24 | 34.12619 | 130.83514 | 14910 ft | 362 kts | 246° |
| 2026-05-07 08:24 | 34.11392 | 130.80871 | 14463 ft | 361 kts | 238° |
| 2026-05-07 08:24 | 34.09974 | 130.78374 | 14019 ft | 360 kts | 236° |
| 2026-05-07 08:24 | 34.08496 | 130.75991 | 13375 ft | 347 kts | 232° |
| 2026-05-07 08:25 | 34.07008 | 130.73814 | 12874 ft | 326 kts | 232° |
| 2026-05-07 08:25 | 34.05689 | 130.71911 | 12480 ft | 308 kts | 232° |
| 2026-05-07 08:25 | 34.04356 | 130.69992 | 12058 ft | 291 kts | 232° |
| 2026-05-07 08:25 | 34.03082 | 130.68160 | 11485 ft | 281 kts | 232° |
| 2026-05-07 08:26 | 34.00624 | 130.64654 | 10196 ft | 273 kts | 229° |
| 2026-05-07 08:26 | 33.99332 | 130.63001 | 9495 ft | 269 kts | 228° |
| 2026-05-07 08:26 | 33.98045 | 130.61375 | 8756 ft | 267 kts | 227° |
| 2026-05-07 08:27 | 33.96765 | 130.59770 | 8025 ft | 265 kts | 227° |
| 2026-05-07 08:27 | 33.95508 | 130.58200 | 7288 ft | 264 kts | 227° |
| 2026-05-07 08:27 | 33.94227 | 130.56604 | 6493 ft | 266 kts | 226° |
| 2026-05-07 08:27 | 33.92940 | 130.55006 | 5749 ft | 265 kts | 225° |
| 2026-05-07 08:28 | 33.91664 | 130.53420 | 5029 ft | 262 kts | 225° |
| 2026-05-07 08:28 | 33.90401 | 130.51852 | 4305 ft | 259 kts | 224° |
| 2026-05-07 08:28 | 33.89149 | 130.50302 | 3572 ft | 257 kts | 225° |
| 2026-05-07 08:28 | 33.87916 | 130.48772 | 3022 ft | 249 kts | 225° |
| 2026-05-07 08:29 | 33.86752 | 130.47326 | 2739 ft | 232 kts | 226° |
| 2026-05-07 08:29 | 33.85666 | 130.45981 | 2619 ft | 218 kts | 225° |
| 2026-05-07 08:29 | 33.84644 | 130.44714 | 2548 ft | 204 kts | 225° |
| 2026-05-07 08:29 | 33.83697 | 130.43542 | 2487 ft | 195 kts | 225° |
| 2026-05-07 08:30 | 33.82759 | 130.42380 | 2465 ft | 191 kts | 226° |
| 2026-05-07 08:30 | 33.81870 | 130.41279 | 2383 ft | 177 kts | 225° |
| 2026-05-07 08:30 | 33.81012 | 130.40221 | 2339 ft | 179 kts | 225° |
| 2026-05-07 08:30 | 33.80142 | 130.39148 | 2292 ft | 180 kts | 225° |
| 2026-05-07 08:31 | 33.79271 | 130.38071 | 2237 ft | 180 kts | 225° |
| 2026-05-07 08:31 | 33.78401 | 130.36995 | 2170 ft | 179 kts | 225° |
| 2026-05-07 08:31 | 33.77542 | 130.35938 | 2094 ft | 179 kts | 225° |
| 2026-05-07 08:31 | 33.76676 | 130.34867 | 2020 ft | 178 kts | 227° |
| 2026-05-07 08:32 | 33.75634 | 130.34098 | 1990 ft | 182 kts | 191° |
| 2026-05-07 08:32 | 33.74381 | 130.34255 | 1979 ft | 184 kts | 161° |
| 2026-05-07 08:32 | 33.73248 | 130.34994 | 1985 ft | 186 kts | 149° |
| 2026-05-07 08:32 | 33.72141 | 130.35792 | 1981 ft | 186 kts | 152° |
| 2026-05-07 08:33 | 33.71017 | 130.36559 | 1981 ft | 186 kts | 153° |
| 2026-05-07 08:33 | 33.69891 | 130.37323 | 1975 ft | 185 kts | 152° |
| 2026-05-07 08:33 | 33.68796 | 130.38070 | 1970 ft | 178 kts | 152° |
| 2026-05-07 08:33 | 33.67769 | 130.38776 | 1857 ft | 167 kts | 152° |
| 2026-05-07 08:34 | 33.66791 | 130.39446 | 1645 ft | 162 kts | 152° |
| 2026-05-07 08:34 | 33.65843 | 130.40097 | 1405 ft | 152 kts | 152° |
| 2026-05-07 08:34 | 33.64948 | 130.40711 | 1233 ft | 147 kts | 152° |
| 2026-05-07 08:34 | 33.64052 | 130.41324 | 1035 ft | 148 kts | 152° |
| 2026-05-07 08:35 | 33.63157 | 130.41940 | 825 ft | 149 kts | 152° |
| 2026-05-07 08:35 | 33.62274 | 130.42555 | 637 ft | 149 kts | 151° |
| 2026-05-07 08:35 | 33.61383 | 130.43162 | 465 ft | 153 kts | 152° |
| 2026-05-07 08:35 | 33.60488 | 130.43784 | 243 ft | 153 kts | 150° |
| 2026-05-07 08:36 | 33.59575 | 130.44402 | 55 ft | 152 kts | 153° |
| 2026-05-07 08:36 | 33.58728 | 130.44973 | 38 ft | 115 kts | 150° |
| 2026-05-07 08:36 | 33.58273 | 130.45284 | 41 ft | 40 kts | 150° |
| 2026-05-07 08:36 | 33.58113 | 130.45454 | 43 ft | 18 kts | 124° |
| 2026-05-07 08:37 | 33.58068 | 130.45550 | 43 ft | 11 kts | 103° |
| 2026-05-07 08:37 | 33.58106 | 130.45610 | 41 ft | 10 kts | 10° |
| 2026-05-07 08:37 | 33.58176 | 130.45577 | 40 ft | 12 kts | 330° |
| 2026-05-07 08:37 | 33.58260 | 130.45521 | 39 ft | 15 kts | 330° |
| 2026-05-07 08:38 | 33.58355 | 130.45455 | 39 ft | 17 kts | 330° |
| 2026-05-07 08:38 | 33.58464 | 130.45381 | 36 ft | 20 kts | 330° |
| 2026-05-07 08:38 | 33.58591 | 130.45295 | 34 ft | 21 kts | 330° |
| 2026-05-07 08:38 | 33.58700 | 130.45221 | 34 ft | 15 kts | 330° |
| 2026-05-07 08:39 | 33.58784 | 130.45163 | 33 ft | 14 kts | 330° |
| 2026-05-07 08:39 | 33.58877 | 130.45099 | 33 ft | 16 kts | 330° |
| 2026-05-07 08:39 | 33.58983 | 130.45027 | 32 ft | 18 kts | 330° |
| 2026-05-07 08:39 | 33.59099 | 130.44949 | 32 ft | 20 kts | 330° |
| 2026-05-07 08:40 | 33.59227 | 130.44860 | 31 ft | 22 kts | 330° |
| 2026-05-07 08:40 | 33.59352 | 130.44776 | 31 ft | 19 kts | 330° |
| 2026-05-07 08:40 | 33.59442 | 130.44714 | 31 ft | 12 kts | 330° |
| 2026-05-07 08:40 | 33.59520 | 130.44661 | 31 ft | 14 kts | 330° |
| 2026-05-07 08:41 | 33.59597 | 130.44609 | 31 ft | 12 kts | 330° |
| 2026-05-07 08:41 | 33.59673 | 130.44556 | 31 ft | 13 kts | 330° |
| 2026-05-07 08:41 | 33.59744 | 130.44518 | 31 ft | 9 kts | 355° |
| 2026-05-07 08:41 | 33.59788 | 130.44545 | 31 ft | 7 kts | 43° |
| 2026-05-07 08:42 | 33.59813 | 130.44588 | 31 ft | 7 kts | 60° |
| 2026-05-07 08:42 | 33.59835 | 130.44633 | 31 ft | 5 kts | 60° |
| 2026-05-07 08:42 | 33.59842 | 130.44649 | 31 ft | 0 kts | 60° |
| 2026-05-07 08:42 | 33.59844 | 130.44651 | 31 ft | 0 kts | 60° |